createdAt,value
2023-02-16T00:00:49.951Z,3.77
2023-02-16T00:03:21.381Z,5.78
2023-02-16T00:05:52.763Z,7.32
2023-02-16T00:08:21.577Z,5.53
2023-02-16T00:11:22.894Z,7.88
2023-02-16T00:13:57.665Z,7.82
2023-02-16T00:16:26.965Z,7.63
2023-02-16T00:18:55.747Z,4.97
2023-02-16T00:21:25.245Z,6.95
2023-02-16T00:23:54.035Z,4.30
2023-02-16T00:26:29.369Z,9.80
2023-02-16T00:29:03.330Z,6.65
2023-02-16T00:31:33.283Z,4.87
2023-02-16T00:34:37.946Z,5.28
2023-02-16T00:37:13.391Z,5.85
2023-02-16T00:39:44.760Z,5.10
2023-02-16T00:42:19.853Z,6.65
2023-02-16T00:44:54.165Z,5.80
2023-02-16T00:47:31.315Z,5.88
2023-02-16T00:50:00.309Z,4.68
2023-02-16T00:52:47.223Z,6.55
2023-02-16T00:55:18.723Z,7.80
2023-02-16T00:58:04.494Z,7.50
2023-02-16T01:00:37.386Z,7.95
2023-02-16T01:03:10.055Z,6.35
2023-02-16T01:05:39.296Z,7.88
2023-02-16T01:08:36.844Z,4.97
2023-02-16T01:11:08.804Z,4.85
2023-02-16T01:13:46.558Z,6.47
2023-02-16T01:16:20.560Z,7.28
2023-02-16T01:18:51.438Z,5.47
2023-02-16T01:21:23.730Z,4.50
2023-02-16T01:24:00.075Z,5.13
2023-02-16T01:26:29.307Z,8.45
2023-02-16T01:28:58.079Z,5.55
2023-02-16T01:31:27.072Z,5.88
2023-02-16T01:33:55.845Z,7.78
2023-02-16T01:36:57.210Z,8.40
2023-02-16T01:39:26.362Z,6.53
2023-02-16T01:42:16.485Z,5.72
2023-02-16T01:44:56.243Z,5.18
2023-02-16T01:47:46.404Z,6.63
2023-02-16T01:50:18.741Z,3.95
2023-02-16T01:53:01.597Z,7.03
2023-02-16T01:55:36.335Z,7.25
2023-02-16T01:58:14.139Z,5.38
2023-02-16T02:00:58.149Z,5.85
2023-02-16T02:03:46.863Z,7.23
2023-02-16T02:06:34.044Z,4.10
2023-02-16T02:09:24.806Z,4.85
2023-02-16T02:12:35.303Z,4.40
2023-02-16T02:15:04.909Z,5.32
2023-02-16T02:17:34.491Z,6.05
2023-02-16T02:20:11.890Z,4.50
2023-02-16T02:23:42.001Z,5.78
2023-02-16T02:26:39.983Z,5.50
2023-02-16T02:29:23.321Z,6.85
2023-02-16T02:32:05.785Z,6.83
2023-02-16T02:35:07.987Z,6.40
2023-02-16T02:37:41.723Z,4.00
2023-02-16T02:40:47.384Z,6.03
2023-02-16T02:43:29.867Z,4.57
2023-02-16T02:46:08.645Z,9.85
2023-02-16T02:48:38.338Z,5.40
2023-02-16T02:51:28.495Z,6.43
2023-02-16T02:54:42.454Z,9.20
2023-02-16T02:57:55.705Z,3.83
2023-02-16T03:00:42.098Z,5.22
2023-02-16T03:03:54.624Z,7.15
2023-02-16T03:06:31.125Z,6.35
2023-02-16T03:09:12.383Z,5.78
2023-02-16T03:12:00.097Z,6.00
2023-02-16T03:14:41.523Z,4.30
2023-02-16T03:17:36.328Z,5.30
2023-02-16T03:20:28.427Z,6.57
2023-02-16T03:23:17.719Z,6.18
2023-02-16T03:26:05.296Z,8.18
2023-02-16T03:28:54.449Z,4.38
2023-02-16T03:31:29.408Z,6.40
2023-02-16T03:33:59.330Z,6.53
2023-02-16T03:36:31.326Z,5.35
2023-02-16T03:39:03.678Z,5.13
2023-02-16T03:41:44.535Z,7.38
2023-02-16T03:44:13.740Z,5.22
2023-02-16T03:46:42.880Z,9.60
2023-02-16T03:49:11.664Z,6.65
2023-02-16T03:51:41.737Z,6.05
2023-02-16T03:54:10.953Z,5.57
2023-02-16T03:56:39.635Z,5.30
2023-02-16T03:59:08.704Z,7.30
2023-02-16T04:01:37.817Z,4.45
2023-02-16T04:04:06.860Z,8.90
2023-02-16T04:06:36.361Z,6.18
2023-02-16T04:09:05.561Z,5.97
2023-02-16T04:11:53.550Z,6.13
2023-02-16T04:14:23.837Z,5.70
2023-02-16T04:16:52.594Z,5.60
2023-02-16T04:19:21.753Z,6.38
2023-02-16T04:21:50.917Z,6.03
2023-02-16T04:24:20.228Z,5.97
2023-02-16T04:26:50.431Z,7.28
2023-02-16T04:29:19.308Z,9.00
2023-02-16T04:31:48.346Z,7.35
2023-02-16T04:34:17.456Z,10.93
2023-02-16T04:36:46.101Z,6.40
2023-02-16T04:39:15.547Z,5.63
2023-02-16T04:41:44.696Z,4.80
2023-02-16T04:44:13.701Z,6.03
2023-02-16T04:46:44.538Z,6.47
2023-02-16T04:49:14.134Z,7.17
2023-02-16T04:51:42.841Z,7.40
2023-02-16T04:54:12.113Z,14.93
2023-02-16T04:56:40.792Z,7.80
2023-02-16T04:59:10.007Z,6.45
2023-02-16T05:01:39.403Z,7.72
2023-02-16T05:04:10.809Z,7.75
2023-02-16T05:06:40.311Z,7.97
2023-02-16T05:09:10.655Z,6.05
2023-02-16T05:11:58.111Z,6.75
2023-02-16T05:14:48.659Z,7.97
2023-02-16T05:17:20.528Z,5.88
2023-02-16T05:19:52.826Z,7.57
2023-02-16T05:22:22.579Z,7.40
2023-02-16T05:24:52.810Z,7.65
2023-02-16T05:27:29.351Z,6.50
2023-02-16T05:29:59.155Z,7.95
2023-02-16T05:32:27.989Z,10.20
2023-02-16T05:34:57.714Z,9.18
2023-02-16T05:37:26.677Z,7.78
2023-02-16T05:39:55.992Z,5.85
2023-02-16T05:42:24.679Z,6.25
2023-02-16T05:44:54.257Z,7.25
2023-02-16T05:47:23.178Z,6.25
2023-02-16T05:49:52.133Z,8.55
2023-02-16T05:52:21.766Z,11.35
2023-02-16T05:54:51.431Z,7.78
2023-02-16T05:57:20.291Z,6.15
2023-02-16T05:59:50.079Z,7.47
2023-02-16T06:02:19.149Z,9.13
2023-02-16T06:04:47.953Z,9.60
2023-02-16T06:07:16.535Z,9.60
2023-02-16T06:09:45.328Z,8.60
2023-02-16T06:12:13.974Z,7.75
2023-02-16T06:14:42.785Z,7.97
2023-02-16T06:17:11.780Z,6.65
2023-02-16T06:19:40.657Z,7.97
2023-02-16T06:22:09.213Z,9.57
2023-02-16T06:24:39.916Z,12.15
2023-02-16T06:27:08.991Z,11.43
2023-02-16T06:29:38.819Z,9.27
2023-02-16T06:32:08.644Z,11.48
2023-02-16T06:34:38.417Z,10.17
2023-02-16T06:37:08.386Z,10.30
2023-02-16T06:39:37.543Z,12.02
2023-02-16T06:42:07.025Z,10.98
2023-02-16T06:44:35.904Z,10.43
2023-02-16T06:47:05.148Z,11.35
2023-02-16T06:49:34.022Z,12.82
2023-02-16T06:52:04.157Z,11.43
2023-02-16T06:54:33.332Z,18.25
2023-02-16T06:57:02.281Z,12.52
2023-02-16T06:59:31.328Z,10.48
2023-02-16T07:01:59.894Z,13.38
2023-02-16T07:04:29.126Z,11.17
2023-02-16T07:06:58.530Z,11.75
2023-02-16T07:09:28.978Z,12.30
2023-02-16T07:12:01.420Z,14.07
2023-02-16T07:14:31.779Z,10.65
2023-02-16T07:17:05.072Z,11.18
2023-02-16T07:19:34.608Z,12.07
2023-02-16T07:22:06.269Z,10.45
2023-02-16T07:24:35.461Z,13.25
2023-02-16T07:27:06.178Z,12.57
2023-02-16T07:29:37.525Z,12.25
2023-02-16T07:32:07.071Z,14.23
2023-02-16T07:34:35.946Z,12.65
2023-02-16T07:37:06.222Z,11.27
2023-02-16T07:39:35.784Z,9.38
2023-02-16T07:42:05.037Z,16.33
2023-02-16T07:44:35.502Z,12.00
2023-02-16T07:47:04.663Z,10.02
2023-02-16T07:49:33.627Z,11.00
2023-02-16T07:52:02.982Z,11.65
2023-02-16T07:54:33.991Z,10.07
2023-02-16T07:57:02.846Z,9.27
2023-02-16T07:59:32.247Z,8.48
2023-02-16T08:02:02.343Z,9.05
2023-02-16T08:04:30.989Z,8.85
2023-02-16T08:07:00.231Z,10.60
2023-02-16T08:09:29.207Z,11.73
2023-02-16T08:12:01.295Z,12.05
2023-02-16T08:14:30.684Z,9.30
2023-02-16T08:16:59.458Z,9.10
2023-02-16T08:19:30.822Z,9.35
2023-02-16T08:22:01.682Z,9.23
2023-02-16T08:24:30.584Z,7.55
2023-02-16T08:26:59.214Z,10.25
2023-02-16T08:29:28.410Z,9.73
2023-02-16T08:31:57.717Z,10.33
2023-02-16T08:34:27.712Z,8.70
2023-02-16T08:36:58.064Z,8.45
2023-02-16T08:39:29.822Z,12.82
2023-02-16T08:41:59.780Z,8.85
2023-02-16T08:44:30.546Z,10.80
2023-02-16T08:47:02.090Z,6.65
2023-02-16T08:49:31.793Z,10.77
2023-02-16T08:52:02.886Z,9.95
2023-02-16T08:54:34.583Z,11.18
2023-02-16T08:57:04.024Z,7.22
2023-02-16T08:59:34.158Z,7.05
2023-02-16T09:02:03.169Z,12.17
2023-02-16T09:04:32.872Z,7.68
2023-02-16T09:07:02.156Z,11.38
2023-02-16T09:09:31.210Z,7.25
2023-02-16T09:12:00.112Z,10.02
2023-02-16T09:14:29.769Z,8.93
2023-02-16T09:16:58.903Z,7.40
2023-02-16T09:19:29.225Z,8.77
2023-02-16T09:21:58.848Z,8.05
2023-02-16T09:24:27.923Z,8.85
2023-02-16T09:26:56.841Z,10.60
2023-02-16T09:29:25.381Z,11.15
2023-02-16T09:31:56.624Z,12.40
2023-02-16T09:34:27.773Z,11.45
2023-02-16T09:36:57.397Z,8.15
2023-02-16T09:39:27.176Z,9.55
2023-02-16T09:42:01.845Z,12.65
2023-02-16T09:44:56.241Z,8.18
2023-02-16T09:47:31.858Z,10.48
2023-02-16T09:50:15.176Z,11.13
2023-02-16T09:53:00.225Z,8.43
2023-02-16T09:55:51.034Z,7.32
2023-02-16T09:58:22.481Z,7.10
2023-02-16T10:01:04.050Z,9.13
2023-02-16T10:03:36.009Z,8.40
2023-02-16T10:06:16.225Z,9.77
2023-02-16T10:08:48.294Z,9.25
2023-02-16T10:11:47.209Z,8.48
2023-02-16T10:14:39.060Z,8.98
2023-02-16T10:17:35.773Z,13.70
2023-02-16T10:20:20.996Z,9.57
2023-02-16T10:22:53.530Z,7.72
2023-02-16T10:25:44.190Z,10.85
2023-02-16T10:28:21.785Z,9.02
2023-02-16T10:31:06.907Z,9.88
2023-02-16T10:33:47.211Z,10.13
2023-02-16T10:36:34.558Z,8.52
2023-02-16T10:39:30.509Z,11.23
2023-02-16T10:42:11.080Z,9.63
2023-02-16T10:44:52.055Z,8.82
2023-02-16T10:47:35.503Z,9.07
2023-02-16T10:50:06.698Z,9.75
2023-02-16T10:52:40.860Z,11.55
2023-02-16T10:55:10.437Z,8.90
2023-02-16T10:57:40.730Z,10.82
2023-02-16T11:00:25.298Z,7.97
2023-02-16T11:02:55.269Z,12.40
2023-02-16T11:05:30.893Z,7.50
2023-02-16T11:08:02.668Z,11.18
2023-02-16T11:10:48.559Z,13.55
2023-02-16T11:13:34.802Z,16.13
2023-02-16T11:16:15.684Z,14.43
2023-02-16T11:18:51.136Z,10.98
2023-02-16T11:21:20.045Z,13.68
2023-02-16T11:24:03.052Z,17.50
2023-02-16T11:26:32.384Z,19.05
2023-02-16T11:29:21.508Z,19.17
2023-02-16T11:31:50.808Z,15.25
2023-02-16T11:34:42.296Z,22.30
2023-02-16T11:37:17.446Z,21.27
2023-02-16T11:40:20.874Z,21.20
2023-02-16T11:42:53.524Z,30.27
2023-02-16T11:45:36.854Z,34.88
2023-02-16T11:48:15.372Z,34.43
2023-02-16T11:51:06.344Z,32.80
2023-02-16T11:53:38.555Z,40.05
2023-02-16T11:56:30.622Z,42.27
2023-02-16T11:59:29.190Z,34.70
2023-02-16T12:02:17.183Z,8.93
2023-02-16T12:05:13.099Z,13.75
2023-02-16T12:08:09.381Z,11.35
2023-02-16T12:10:43.916Z,12.00
2023-02-16T12:13:51.339Z,10.45
2023-02-16T12:16:38.016Z,12.20
2023-02-16T12:19:29.224Z,11.38
2023-02-16T12:22:27.772Z,8.68
2023-02-16T12:25:20.767Z,7.93
2023-02-16T12:28:13.809Z,5.97
2023-02-16T12:31:26.266Z,8.88
2023-02-16T12:34:11.587Z,6.82
2023-02-16T12:37:06.164Z,6.85
2023-02-16T12:39:53.289Z,7.68
2023-02-16T12:42:59.129Z,8.40
2023-02-16T12:45:38.450Z,8.25
2023-02-16T12:48:27.487Z,9.05
2023-02-16T12:50:58.411Z,11.90
2023-02-16T12:53:46.043Z,9.25
2023-02-16T12:56:23.051Z,8.05
2023-02-16T12:59:04.669Z,9.43
2023-02-16T13:01:37.211Z,6.47
2023-02-16T13:04:23.212Z,6.65
2023-02-16T13:07:17.865Z,8.27
2023-02-16T13:10:04.080Z,9.75
2023-02-16T13:12:51.710Z,27.80
2023-02-16T13:15:35.917Z,42.83
2023-02-16T13:18:31.697Z,44.17
2023-02-16T13:21:11.957Z,42.83
2023-02-16T13:23:55.176Z,53.45
2023-02-16T13:27:04.124Z,55.17
2023-02-16T13:29:40.280Z,38.60
2023-02-16T13:32:29.180Z,62.47
2023-02-16T13:35:23.857Z,37.50
2023-02-16T13:38:34.082Z,41.13
2023-02-16T13:41:24.933Z,25.85
2023-02-16T13:44:12.737Z,18.33
2023-02-16T13:46:50.999Z,12.57
2023-02-16T13:49:34.706Z,17.92
2023-02-16T13:52:04.678Z,21.17
2023-02-16T13:54:40.847Z,19.77
2023-02-16T13:57:36.270Z,20.35
2023-02-16T14:00:06.794Z,22.38
2023-02-16T14:02:58.109Z,24.83
2023-02-16T14:05:35.106Z,23.52
2023-02-16T14:08:17.366Z,24.98
2023-02-16T14:11:02.227Z,19.63
2023-02-16T14:13:36.993Z,16.63
2023-02-16T14:16:12.252Z,17.48
2023-02-16T14:19:03.730Z,17.07
2023-02-16T14:21:40.064Z,11.55
2023-02-16T14:24:30.744Z,14.90
2023-02-16T14:27:05.505Z,12.33
2023-02-16T14:29:54.930Z,11.32
2023-02-16T14:32:39.325Z,14.07
2023-02-16T14:35:36.792Z,11.93
2023-02-16T14:38:17.497Z,14.48
2023-02-16T14:40:57.149Z,13.23
2023-02-16T14:43:28.998Z,15.27
2023-02-16T14:46:39.696Z,16.98
2023-02-16T14:49:35.606Z,18.08
2023-02-16T14:52:10.845Z,15.60
2023-02-16T14:54:48.572Z,14.32
2023-02-16T14:57:50.976Z,15.38
2023-02-16T15:00:46.810Z,17.10
2023-02-16T15:03:22.267Z,13.90
2023-02-16T15:06:00.132Z,19.10
2023-02-16T15:08:36.134Z,16.43
2023-02-16T15:11:21.427Z,12.30
2023-02-16T15:13:54.767Z,13.35
2023-02-16T15:16:25.717Z,15.63
2023-02-16T15:18:57.909Z,13.38
2023-02-16T15:21:31.969Z,14.93
2023-02-16T15:24:03.133Z,15.20
2023-02-16T15:26:34.984Z,16.83
2023-02-16T15:29:24.460Z,17.83
2023-02-16T15:31:54.696Z,20.40
2023-02-16T15:34:35.843Z,17.38
2023-02-16T15:37:28.263Z,17.60
2023-02-16T15:40:23.039Z,16.50
2023-02-16T15:42:47.374Z,15.13
2023-02-16T15:45:40.018Z,15.25
2023-02-16T15:48:26.852Z,17.40
2023-02-16T15:51:08.381Z,17.20
2023-02-16T15:53:48.413Z,16.33
2023-02-16T15:56:44.743Z,15.50
2023-02-16T15:59:36.620Z,12.55
2023-02-16T16:02:15.182Z,12.18
2023-02-16T16:04:49.838Z,12.40
2023-02-16T16:07:27.644Z,12.68
2023-02-16T16:09:59.369Z,14.20
2023-02-16T16:12:30.648Z,17.35
2023-02-16T16:15:02.433Z,13.10
2023-02-16T16:17:34.804Z,12.40
2023-02-16T16:20:25.596Z,10.40
2023-02-16T16:23:16.253Z,12.23
2023-02-16T16:25:49.099Z,13.57
2023-02-16T16:28:28.061Z,12.60
2023-02-16T16:31:15.219Z,11.53
2023-02-16T16:34:01.849Z,15.05
2023-02-16T16:36:51.739Z,11.18
2023-02-16T16:39:23.509Z,11.10
2023-02-16T16:41:58.760Z,9.50
2023-02-16T16:45:07.400Z,8.63
2023-02-16T16:47:41.835Z,10.05
2023-02-16T16:50:19.316Z,12.43
2023-02-16T16:52:51.310Z,10.50
2023-02-16T16:55:23.324Z,11.82
2023-02-16T16:58:01.407Z,10.68
2023-02-16T17:00:36.457Z,12.23
2023-02-16T17:03:08.641Z,9.20
2023-02-16T17:05:39.239Z,15.57
2023-02-16T17:08:10.892Z,13.38
2023-02-16T17:10:42.874Z,13.90
2023-02-16T17:13:19.664Z,19.77
2023-02-16T17:16:03.788Z,15.35
2023-02-16T17:18:33.331Z,16.30
2023-02-16T17:21:03.664Z,13.07
2023-02-16T17:23:33.069Z,17.27
2023-02-16T17:26:02.548Z,12.57
2023-02-16T17:28:37.918Z,15.27
2023-02-16T17:31:11.705Z,13.52
2023-02-16T17:33:41.258Z,13.15
2023-02-16T17:36:14.526Z,9.90
2023-02-16T17:38:44.460Z,15.02
2023-02-16T17:41:23.240Z,13.45
2023-02-16T17:43:53.506Z,15.55
2023-02-16T17:46:23.655Z,11.55
2023-02-16T17:48:56.224Z,13.05
2023-02-16T17:51:26.448Z,13.95
2023-02-16T17:53:58.057Z,12.68
2023-02-16T17:56:27.161Z,16.58
2023-02-16T17:58:57.172Z,14.98
2023-02-16T18:01:29.303Z,14.70
2023-02-16T18:03:58.394Z,12.15
2023-02-16T18:06:30.873Z,15.35
2023-02-16T18:08:59.836Z,15.50
2023-02-16T18:11:28.660Z,15.18
2023-02-16T18:13:58.168Z,17.13
2023-02-16T18:16:28.993Z,13.15
2023-02-16T18:18:59.116Z,15.50
2023-02-16T18:21:28.269Z,13.40
2023-02-16T18:23:58.282Z,17.27
2023-02-16T18:26:31.015Z,12.52
2023-02-16T18:29:00.165Z,14.73
2023-02-16T18:31:29.018Z,14.25
2023-02-16T18:33:58.070Z,14.15
2023-02-16T18:36:26.687Z,14.57
2023-02-16T18:38:55.772Z,12.95
2023-02-16T18:41:24.789Z,12.98
2023-02-16T18:43:57.903Z,13.57
2023-02-16T18:46:26.982Z,13.83
2023-02-16T18:48:56.091Z,16.80
2023-02-16T18:51:29.843Z,16.45
2023-02-16T18:53:59.229Z,13.75
2023-02-16T18:56:28.546Z,15.23
2023-02-16T18:58:57.633Z,15.18
2023-02-16T19:01:31.830Z,12.15
2023-02-16T19:04:02.457Z,18.25
2023-02-16T19:06:31.630Z,17.50
2023-02-16T19:09:01.599Z,13.57
2023-02-16T19:11:32.224Z,13.60
2023-02-16T19:14:01.248Z,13.52
2023-02-16T19:16:29.889Z,14.57
2023-02-16T19:18:58.939Z,18.70
2023-02-16T19:21:28.256Z,15.33
2023-02-16T19:23:57.110Z,14.63
2023-02-16T19:26:26.574Z,13.73
2023-02-16T19:28:55.422Z,11.45
2023-02-16T19:31:27.481Z,13.18
2023-02-16T19:33:59.652Z,11.98
2023-02-16T19:36:34.970Z,10.75
2023-02-16T19:39:04.435Z,10.90
2023-02-16T19:41:37.047Z,12.10
2023-02-16T19:44:06.706Z,10.20
2023-02-16T19:46:36.635Z,9.45
2023-02-16T19:49:07.223Z,10.68
2023-02-16T19:51:36.139Z,11.88
2023-02-16T19:54:05.307Z,9.32
2023-02-16T19:56:34.167Z,10.65
2023-02-16T19:59:03.149Z,11.60
2023-02-16T20:01:32.069Z,13.80
2023-02-16T20:04:03.202Z,10.10
2023-02-16T20:06:38.404Z,10.27
2023-02-16T20:09:07.638Z,8.85
2023-02-16T20:11:36.635Z,8.93
2023-02-16T20:14:05.797Z,11.40
2023-02-16T20:16:35.061Z,7.40
2023-02-16T20:19:05.758Z,9.30
2023-02-16T20:21:35.621Z,7.50
2023-02-16T20:24:06.994Z,8.73
2023-02-16T20:26:39.517Z,9.73
2023-02-16T20:29:10.049Z,9.63
2023-02-16T20:31:56.609Z,5.82
2023-02-16T20:34:28.382Z,10.98
2023-02-16T20:36:57.398Z,9.63
2023-02-16T20:39:26.238Z,10.82
2023-02-16T20:41:55.681Z,7.82
2023-02-16T20:44:24.326Z,7.53
2023-02-16T20:46:54.337Z,9.13
2023-02-16T20:49:23.264Z,8.88
2023-02-16T20:51:51.963Z,7.35
2023-02-16T20:54:22.014Z,8.48
2023-02-16T20:56:51.011Z,9.85
2023-02-16T20:59:20.132Z,9.70
2023-02-16T21:01:52.126Z,8.30
2023-02-16T21:04:21.580Z,9.23
2023-02-16T21:06:50.674Z,8.55
2023-02-16T21:09:19.527Z,7.20
2023-02-16T21:11:48.128Z,9.10
2023-02-16T21:14:17.208Z,11.32
2023-02-16T21:16:45.924Z,9.47
2023-02-16T21:19:22.879Z,11.38
2023-02-16T21:21:53.647Z,10.80
2023-02-16T21:24:22.702Z,6.68
2023-02-16T21:26:51.455Z,5.60
2023-02-16T21:29:20.182Z,13.88
2023-02-16T21:31:49.245Z,7.05
2023-02-16T21:34:18.729Z,11.27
2023-02-16T21:36:47.497Z,7.75
2023-02-16T21:39:17.333Z,9.60
2023-02-16T21:41:46.087Z,7.72
2023-02-16T21:44:16.908Z,11.48
2023-02-16T21:46:47.974Z,9.13
2023-02-16T21:49:21.397Z,8.95
2023-02-16T21:51:50.571Z,8.95
2023-02-16T21:54:40.501Z,7.65
2023-02-16T21:57:09.400Z,7.82
2023-02-16T21:59:38.661Z,9.65
2023-02-16T22:02:07.508Z,9.52
2023-02-16T22:04:36.373Z,9.60
2023-02-16T22:07:05.919Z,9.20
2023-02-16T22:09:35.715Z,6.47
2023-02-16T22:12:04.969Z,9.13
2023-02-16T22:14:34.156Z,10.13
2023-02-16T22:17:04.104Z,7.85
2023-02-16T22:19:33.113Z,8.52
2023-02-16T22:22:01.838Z,7.88
2023-02-16T22:24:31.493Z,5.53
2023-02-16T22:27:00.388Z,8.07
2023-02-16T22:29:29.282Z,9.73
2023-02-16T22:31:58.024Z,10.80
2023-02-16T22:34:26.929Z,8.10
2023-02-16T22:36:56.863Z,9.50
2023-02-16T22:39:25.851Z,6.97
2023-02-16T22:41:54.614Z,10.18
2023-02-16T22:44:24.739Z,8.57
2023-02-16T22:46:53.462Z,9.73
2023-02-16T22:49:22.590Z,8.70
2023-02-16T22:51:51.474Z,8.83
2023-02-16T22:54:21.437Z,6.63
2023-02-16T22:56:50.276Z,9.55
2023-02-16T22:59:19.336Z,11.38
2023-02-16T23:01:48.505Z,8.15
2023-02-16T23:04:18.214Z,5.93
2023-02-16T23:06:47.477Z,9.32
2023-02-16T23:09:20.341Z,9.05
2023-02-16T23:11:51.126Z,12.45
2023-02-16T23:14:22.081Z,6.87
2023-02-16T23:16:54.083Z,7.93
2023-02-16T23:19:25.916Z,7.45
2023-02-16T23:21:55.663Z,7.85
2023-02-16T23:24:25.161Z,9.93
2023-02-16T23:26:54.930Z,9.15
2023-02-16T23:29:23.996Z,8.63
2023-02-16T23:31:53.485Z,8.52
2023-02-16T23:34:22.776Z,6.22
2023-02-16T23:36:51.938Z,7.82
2023-02-16T23:39:20.600Z,9.00
2023-02-16T23:41:49.352Z,5.45
2023-02-16T23:44:18.270Z,8.95
2023-02-16T23:46:47.041Z,7.10
2023-02-16T23:49:16.160Z,7.35
2023-02-16T23:51:44.693Z,10.57
2023-02-16T23:54:13.879Z,9.15
2023-02-16T23:56:42.838Z,8.38
2023-02-16T23:59:13.694Z,6.37
